sensor_id;sensor_type;location;lat;lon;timestamp;P1;durP1;ratioP1;P2;durP2;ratioP2
21758;SDS011;11041;50.854;20.580;2023-12-20T00:01:12;16.17;;;10.48;;
21758;SDS011;11041;50.854;20.580;2023-12-20T00:03:43;47.10;;;25.48;;
21758;SDS011;11041;50.854;20.580;2023-12-20T00:06:10;16.10;;;9.30;;
21758;SDS011;11041;50.854;20.580;2023-12-20T00:08:42;16.23;;;11.00;;
21758;SDS011;11041;50.854;20.580;2023-12-20T00:11:12;27.63;;;17.40;;
21758;SDS011;11041;50.854;20.580;2023-12-20T00:13:45;18.15;;;11.13;;
21758;SDS011;11041;50.854;20.580;2023-12-20T00:16:14;16.58;;;10.10;;
21758;SDS011;11041;50.854;20.580;2023-12-20T00:18:41;17.80;;;11.55;;
21758;SDS011;11041;50.854;20.580;2023-12-20T00:21:08;16.40;;;10.20;;
21758;SDS011;11041;50.854;20.580;2023-12-20T00:23:37;18.67;;;11.48;;
21758;SDS011;11041;50.854;20.580;2023-12-20T00:26:06;17.63;;;11.05;;
21758;SDS011;11041;50.854;20.580;2023-12-20T00:28:33;17.10;;;11.20;;
21758;SDS011;11041;50.854;20.580;2023-12-20T00:31:04;17.20;;;10.65;;
21758;SDS011;11041;50.854;20.580;2023-12-20T00:33:32;16.55;;;10.77;;
21758;SDS011;11041;50.854;20.580;2023-12-20T00:36:02;21.35;;;11.30;;
21758;SDS011;11041;50.854;20.580;2023-12-20T00:38:30;17.48;;;11.70;;
21758;SDS011;11041;50.854;20.580;2023-12-20T00:40:56;22.00;;;12.35;;
21758;SDS011;11041;50.854;20.580;2023-12-20T00:43:25;18.05;;;11.82;;
21758;SDS011;11041;50.854;20.580;2023-12-20T00:45:56;20.40;;;11.55;;
21758;SDS011;11041;50.854;20.580;2023-12-20T00:48:25;18.65;;;11.23;;
21758;SDS011;11041;50.854;20.580;2023-12-20T00:50:59;15.95;;;10.80;;
21758;SDS011;11041;50.854;20.580;2023-12-20T00:53:28;18.58;;;11.55;;
21758;SDS011;11041;50.854;20.580;2023-12-20T00:55:58;18.30;;;11.73;;
21758;SDS011;11041;50.854;20.580;2023-12-20T00:58:28;21.80;;;13.25;;
21758;SDS011;11041;50.854;20.580;2023-12-20T01:01:02;19.63;;;13.30;;
21758;SDS011;11041;50.854;20.580;2023-12-20T01:03:30;20.40;;;13.63;;
21758;SDS011;11041;50.854;20.580;2023-12-20T01:06:03;21.15;;;13.60;;
21758;SDS011;11041;50.854;20.580;2023-12-20T01:08:36;24.98;;;14.02;;
21758;SDS011;11041;50.854;20.580;2023-12-20T01:11:05;20.27;;;13.38;;
21758;SDS011;11041;50.854;20.580;2023-12-20T01:13:35;21.90;;;12.98;;
21758;SDS011;11041;50.854;20.580;2023-12-20T01:16:05;20.35;;;12.05;;
21758;SDS011;11041;50.854;20.580;2023-12-20T01:18:36;21.88;;;13.90;;
21758;SDS011;11041;50.854;20.580;2023-12-20T01:21:05;21.90;;;13.40;;
21758;SDS011;11041;50.854;20.580;2023-12-20T01:23:34;18.85;;;13.07;;
21758;SDS011;11041;50.854;20.580;2023-12-20T01:26:07;24.00;;;12.27;;
21758;SDS011;11041;50.854;20.580;2023-12-20T01:28:34;20.95;;;12.45;;
21758;SDS011;11041;50.854;20.580;2023-12-20T01:31:06;20.08;;;13.60;;
21758;SDS011;11041;50.854;20.580;2023-12-20T01:33:36;21.63;;;13.60;;
21758;SDS011;11041;50.854;20.580;2023-12-20T01:36:07;23.15;;;13.80;;
21758;SDS011;11041;50.854;20.580;2023-12-20T01:38:37;20.33;;;13.55;;
21758;SDS011;11041;50.854;20.580;2023-12-20T01:41:05;20.67;;;14.27;;
21758;SDS011;11041;50.854;20.580;2023-12-20T01:43:36;20.52;;;13.50;;
21758;SDS011;11041;50.854;20.580;2023-12-20T01:46:05;22.10;;;14.05;;
21758;SDS011;11041;50.854;20.580;2023-12-20T01:48:35;21.10;;;13.65;;
21758;SDS011;11041;50.854;20.580;2023-12-20T01:51:09;20.50;;;13.70;;
21758;SDS011;11041;50.854;20.580;2023-12-20T01:53:37;20.48;;;12.68;;
21758;SDS011;11041;50.854;20.580;2023-12-20T01:56:08;17.55;;;10.88;;
21758;SDS011;11041;50.854;20.580;2023-12-20T01:58:39;22.55;;;13.68;;
21758;SDS011;11041;50.854;20.580;2023-12-20T02:01:11;18.58;;;12.48;;
21758;SDS011;11041;50.854;20.580;2023-12-20T02:03:41;22.55;;;14.20;;
21758;SDS011;11041;50.854;20.580;2023-12-20T02:06:14;20.33;;;13.25;;
21758;SDS011;11041;50.854;20.580;2023-12-20T02:08:49;19.85;;;13.13;;
21758;SDS011;11041;50.854;20.580;2023-12-20T02:11:17;22.33;;;13.15;;
21758;SDS011;11041;50.854;20.580;2023-12-20T02:13:45;18.90;;;11.95;;
21758;SDS011;11041;50.854;20.580;2023-12-20T02:16:16;23.63;;;13.80;;
21758;SDS011;11041;50.854;20.580;2023-12-20T02:18:44;19.70;;;13.07;;
21758;SDS011;11041;50.854;20.580;2023-12-20T02:21:13;22.08;;;13.20;;
21758;SDS011;11041;50.854;20.580;2023-12-20T02:23:41;23.38;;;14.52;;
21758;SDS011;11041;50.854;20.580;2023-12-20T02:26:11;21.67;;;13.80;;
21758;SDS011;11041;50.854;20.580;2023-12-20T02:28:44;20.92;;;13.75;;
21758;SDS011;11041;50.854;20.580;2023-12-20T02:31:16;21.85;;;13.77;;
21758;SDS011;11041;50.854;20.580;2023-12-20T02:33:49;24.77;;;13.80;;
21758;SDS011;11041;50.854;20.580;2023-12-20T02:36:19;24.15;;;14.70;;
21758;SDS011;11041;50.854;20.580;2023-12-20T02:38:52;23.80;;;15.02;;
21758;SDS011;11041;50.854;20.580;2023-12-20T02:41:18;21.55;;;14.35;;
21758;SDS011;11041;50.854;20.580;2023-12-20T02:43:47;22.25;;;14.52;;
21758;SDS011;11041;50.854;20.580;2023-12-20T02:46:17;20.60;;;13.77;;
21758;SDS011;11041;50.854;20.580;2023-12-20T02:48:49;25.15;;;15.88;;
21758;SDS011;11041;50.854;20.580;2023-12-20T02:51:18;20.05;;;13.52;;
21758;SDS011;11041;50.854;20.580;2023-12-20T02:53:47;24.38;;;15.68;;
21758;SDS011;11041;50.854;20.580;2023-12-20T02:56:19;24.00;;;14.68;;
21758;SDS011;11041;50.854;20.580;2023-12-20T02:58:46;21.92;;;14.05;;
21758;SDS011;11041;50.854;20.580;2023-12-20T03:01:14;23.08;;;13.55;;
21758;SDS011;11041;50.854;20.580;2023-12-20T03:03:41;23.02;;;13.65;;
21758;SDS011;11041;50.854;20.580;2023-12-20T03:06:11;19.42;;;13.57;;
21758;SDS011;11041;50.854;20.580;2023-12-20T03:08:45;19.08;;;12.80;;
21758;SDS011;11041;50.854;20.580;2023-12-20T03:11:15;17.90;;;12.68;;
21758;SDS011;11041;50.854;20.580;2023-12-20T03:13:46;19.13;;;12.63;;
21758;SDS011;11041;50.854;20.580;2023-12-20T03:16:13;18.67;;;12.35;;
21758;SDS011;11041;50.854;20.580;2023-12-20T03:18:44;16.83;;;11.88;;
21758;SDS011;11041;50.854;20.580;2023-12-20T03:21:14;17.08;;;11.13;;
21758;SDS011;11041;50.854;20.580;2023-12-20T03:23:47;17.75;;;11.43;;
21758;SDS011;11041;50.854;20.580;2023-12-20T03:26:17;19.48;;;11.30;;
21758;SDS011;11041;50.854;20.580;2023-12-20T03:28:45;21.23;;;12.20;;
21758;SDS011;11041;50.854;20.580;2023-12-20T03:31:17;16.88;;;11.10;;
21758;SDS011;11041;50.854;20.580;2023-12-20T03:33:48;17.33;;;10.20;;
21758;SDS011;11041;50.854;20.580;2023-12-20T03:36:17;19.83;;;11.82;;
21758;SDS011;11041;50.854;20.580;2023-12-20T03:38:45;17.00;;;11.88;;
21758;SDS011;11041;50.854;20.580;2023-12-20T03:41:15;20.52;;;11.45;;
21758;SDS011;11041;50.854;20.580;2023-12-20T03:43:44;17.83;;;11.20;;
21758;SDS011;11041;50.854;20.580;2023-12-20T03:46:14;20.20;;;12.00;;
21758;SDS011;11041;50.854;20.580;2023-12-20T03:48:45;16.73;;;11.75;;
21758;SDS011;11041;50.854;20.580;2023-12-20T03:51:15;19.13;;;12.30;;
21758;SDS011;11041;50.854;20.580;2023-12-20T03:53:46;19.13;;;11.18;;
21758;SDS011;11041;50.854;20.580;2023-12-20T03:56:14;15.90;;;11.52;;
21758;SDS011;11041;50.854;20.580;2023-12-20T03:58:44;17.38;;;11.98;;
21758;SDS011;11041;50.854;20.580;2023-12-20T04:01:16;21.73;;;12.25;;
21758;SDS011;11041;50.854;20.580;2023-12-20T04:03:47;20.65;;;12.30;;
21758;SDS011;11041;50.854;20.580;2023-12-20T04:06:20;19.30;;;12.15;;
21758;SDS011;11041;50.854;20.580;2023-12-20T04:08:47;21.13;;;12.48;;
21758;SDS011;11041;50.854;20.580;2023-12-20T04:11:13;15.95;;;10.10;;
21758;SDS011;11041;50.854;20.580;2023-12-20T04:13:43;20.83;;;13.27;;
21758;SDS011;11041;50.854;20.580;2023-12-20T04:16:12;22.25;;;14.02;;
21758;SDS011;11041;50.854;20.580;2023-12-20T04:18:43;22.80;;;14.10;;
21758;SDS011;11041;50.854;20.580;2023-12-20T04:21:14;20.70;;;13.02;;
21758;SDS011;11041;50.854;20.580;2023-12-20T04:23:43;23.48;;;15.02;;
21758;SDS011;11041;50.854;20.580;2023-12-20T04:26:16;19.98;;;13.77;;
21758;SDS011;11041;50.854;20.580;2023-12-20T04:28:43;21.63;;;14.77;;
21758;SDS011;11041;50.854;20.580;2023-12-20T04:31:13;25.25;;;16.33;;
21758;SDS011;11041;50.854;20.580;2023-12-20T04:33:43;22.77;;;14.35;;
21758;SDS011;11041;50.854;20.580;2023-12-20T04:36:09;21.40;;;14.65;;
21758;SDS011;11041;50.854;20.580;2023-12-20T04:38:36;25.63;;;16.58;;
21758;SDS011;11041;50.854;20.580;2023-12-20T04:41:03;23.65;;;15.35;;
21758;SDS011;11041;50.854;20.580;2023-12-20T04:43:30;25.88;;;15.30;;
21758;SDS011;11041;50.854;20.580;2023-12-20T04:45:57;24.38;;;15.40;;
21758;SDS011;11041;50.854;20.580;2023-12-20T04:48:24;24.30;;;14.68;;
21758;SDS011;11041;50.854;20.580;2023-12-20T04:50:52;22.00;;;14.43;;
21758;SDS011;11041;50.854;20.580;2023-12-20T04:53:19;24.02;;;15.63;;
21758;SDS011;11041;50.854;20.580;2023-12-20T04:55:46;22.50;;;15.15;;
21758;SDS011;11041;50.854;20.580;2023-12-20T04:58:15;24.58;;;16.50;;
21758;SDS011;11041;50.854;20.580;2023-12-20T05:00:43;24.27;;;16.20;;
21758;SDS011;11041;50.854;20.580;2023-12-20T05:03:11;22.23;;;14.15;;
21758;SDS011;11041;50.854;20.580;2023-12-20T05:05:38;22.33;;;15.27;;
21758;SDS011;11041;50.854;20.580;2023-12-20T05:08:05;25.35;;;15.25;;
21758;SDS011;11041;50.854;20.580;2023-12-20T05:10:32;24.70;;;16.58;;
21758;SDS011;11041;50.854;20.580;2023-12-20T05:13:01;21.00;;;14.75;;
21758;SDS011;11041;50.854;20.580;2023-12-20T05:15:29;23.73;;;15.85;;
21758;SDS011;11041;50.854;20.580;2023-12-20T05:17:56;23.42;;;15.63;;
21758;SDS011;11041;50.854;20.580;2023-12-20T05:20:23;21.35;;;15.20;;
21758;SDS011;11041;50.854;20.580;2023-12-20T05:22:49;25.95;;;17.70;;
21758;SDS011;11041;50.854;20.580;2023-12-20T05:25:16;24.92;;;15.77;;
21758;SDS011;11041;50.854;20.580;2023-12-20T05:27:44;22.45;;;14.80;;
21758;SDS011;11041;50.854;20.580;2023-12-20T05:30:14;16.88;;;11.85;;
21758;SDS011;11041;50.854;20.580;2023-12-20T05:32:44;20.42;;;13.95;;
21758;SDS011;11041;50.854;20.580;2023-12-20T05:35:11;19.77;;;12.63;;
21758;SDS011;11041;50.854;20.580;2023-12-20T05:37:44;17.83;;;12.90;;
21758;SDS011;11041;50.854;20.580;2023-12-20T05:40:11;18.55;;;13.18;;
21758;SDS011;11041;50.854;20.580;2023-12-20T05:42:38;21.80;;;13.52;;
21758;SDS011;11041;50.854;20.580;2023-12-20T05:45:06;22.55;;;15.00;;
21758;SDS011;11041;50.854;20.580;2023-12-20T05:47:37;21.13;;;14.27;;
21758;SDS011;11041;50.854;20.580;2023-12-20T05:50:06;18.88;;;14.27;;
21758;SDS011;11041;50.854;20.580;2023-12-20T05:52:33;18.58;;;13.30;;
21758;SDS011;11041;50.854;20.580;2023-12-20T05:55:03;21.60;;;13.63;;
21758;SDS011;11041;50.854;20.580;2023-12-20T05:57:30;15.13;;;8.75;;
21758;SDS011;11041;50.854;20.580;2023-12-20T06:00:01;17.92;;;12.48;;
21758;SDS011;11041;50.854;20.580;2023-12-20T06:02:29;15.10;;;11.57;;
21758;SDS011;11041;50.854;20.580;2023-12-20T06:05:00;15.07;;;10.23;;
21758;SDS011;11041;50.854;20.580;2023-12-20T06:07:27;14.05;;;10.05;;
21758;SDS011;11041;50.854;20.580;2023-12-20T06:09:57;14.70;;;10.98;;
21758;SDS011;11041;50.854;20.580;2023-12-20T06:12:25;15.90;;;10.73;;
21758;SDS011;11041;50.854;20.580;2023-12-20T06:14:55;14.93;;;11.15;;
21758;SDS011;11041;50.854;20.580;2023-12-20T06:17:22;15.93;;;10.90;;
21758;SDS011;11041;50.854;20.580;2023-12-20T06:19:50;18.20;;;10.98;;
21758;SDS011;11041;50.854;20.580;2023-12-20T06:22:16;17.85;;;12.02;;
21758;SDS011;11041;50.854;20.580;2023-12-20T06:24:43;15.13;;;11.20;;
21758;SDS011;11041;50.854;20.580;2023-12-20T06:27:09;19.65;;;12.15;;
21758;SDS011;11041;50.854;20.580;2023-12-20T06:29:36;16.10;;;11.57;;
21758;SDS011;11041;50.854;20.580;2023-12-20T06:32:06;16.83;;;11.52;;
21758;SDS011;11041;50.854;20.580;2023-12-20T06:34:35;13.38;;;11.05;;
21758;SDS011;11041;50.854;20.580;2023-12-20T06:37:06;18.33;;;11.50;;
21758;SDS011;11041;50.854;20.580;2023-12-20T06:39:34;17.50;;;11.40;;
21758;SDS011;11041;50.854;20.580;2023-12-20T06:42:02;18.17;;;11.98;;
21758;SDS011;11041;50.854;20.580;2023-12-20T06:44:29;18.58;;;12.65;;
21758;SDS011;11041;50.854;20.580;2023-12-20T06:46:57;19.55;;;12.52;;
21758;SDS011;11041;50.854;20.580;2023-12-20T06:49:23;18.88;;;12.98;;
21758;SDS011;11041;50.854;20.580;2023-12-20T06:51:50;20.40;;;13.45;;
21758;SDS011;11041;50.854;20.580;2023-12-20T06:54:18;19.67;;;12.63;;
21758;SDS011;11041;50.854;20.580;2023-12-20T06:56:45;20.15;;;13.93;;
21758;SDS011;11041;50.854;20.580;2023-12-20T06:59:12;22.90;;;14.95;;
21758;SDS011;11041;50.854;20.580;2023-12-20T07:01:39;24.52;;;15.95;;
21758;SDS011;11041;50.854;20.580;2023-12-20T07:04:08;23.42;;;14.75;;
21758;SDS011;11041;50.854;20.580;2023-12-20T07:06:36;24.52;;;15.43;;
21758;SDS011;11041;50.854;20.580;2023-12-20T07:09:02;23.40;;;15.85;;
21758;SDS011;11041;50.854;20.580;2023-12-20T07:11:29;30.15;;;17.42;;
21758;SDS011;11041;50.854;20.580;2023-12-20T07:13:56;26.33;;;18.33;;
21758;SDS011;11041;50.854;20.580;2023-12-20T07:16:24;23.13;;;14.90;;
21758;SDS011;11041;50.854;20.580;2023-12-20T07:18:54;27.98;;;18.02;;
21758;SDS011;11041;50.854;20.580;2023-12-20T07:21:25;27.30;;;16.52;;
21758;SDS011;11041;50.854;20.580;2023-12-20T07:23:56;29.10;;;19.15;;
21758;SDS011;11041;50.854;20.580;2023-12-20T07:26:28;25.52;;;16.92;;
21758;SDS011;11041;50.854;20.580;2023-12-20T07:29:00;25.50;;;17.45;;
21758;SDS011;11041;50.854;20.580;2023-12-20T07:31:27;25.88;;;17.95;;
21758;SDS011;11041;50.854;20.580;2023-12-20T07:33:58;27.58;;;17.23;;
21758;SDS011;11041;50.854;20.580;2023-12-20T07:36:24;25.33;;;17.00;;
21758;SDS011;11041;50.854;20.580;2023-12-20T07:38:55;27.02;;;18.38;;
21758;SDS011;11041;50.854;20.580;2023-12-20T07:41:21;25.05;;;16.83;;
21758;SDS011;11041;50.854;20.580;2023-12-20T07:43:49;24.80;;;14.18;;
21758;SDS011;11041;50.854;20.580;2023-12-20T07:46:16;27.38;;;17.27;;
21758;SDS011;11041;50.854;20.580;2023-12-20T07:48:43;19.35;;;12.15;;
21758;SDS011;11041;50.854;20.580;2023-12-20T07:51:14;26.42;;;17.25;;
21758;SDS011;11041;50.854;20.580;2023-12-20T07:53:42;22.40;;;16.15;;
21758;SDS011;11041;50.854;20.580;2023-12-20T07:56:17;23.67;;;15.60;;
21758;SDS011;11041;50.854;20.580;2023-12-20T07:58:45;25.73;;;16.33;;
21758;SDS011;11041;50.854;20.580;2023-12-20T08:01:13;21.33;;;15.98;;
21758;SDS011;11041;50.854;20.580;2023-12-20T08:03:41;23.23;;;14.48;;
21758;SDS011;11041;50.854;20.580;2023-12-20T08:06:08;32.25;;;17.10;;
21758;SDS011;11041;50.854;20.580;2023-12-20T08:08:36;27.05;;;17.75;;
21758;SDS011;11041;50.854;20.580;2023-12-20T08:11:04;21.75;;;14.38;;
21758;SDS011;11041;50.854;20.580;2023-12-20T08:13:31;21.48;;;14.23;;
21758;SDS011;11041;50.854;20.580;2023-12-20T08:15:57;17.67;;;13.05;;
21758;SDS011;11041;50.854;20.580;2023-12-20T08:18:25;22.08;;;14.23;;
21758;SDS011;11041;50.854;20.580;2023-12-20T08:20:52;21.50;;;13.55;;
21758;SDS011;11041;50.854;20.580;2023-12-20T08:23:19;21.75;;;14.05;;
21758;SDS011;11041;50.854;20.580;2023-12-20T08:25:46;16.92;;;12.23;;
21758;SDS011;11041;50.854;20.580;2023-12-20T08:28:14;22.10;;;14.25;;
21758;SDS011;11041;50.854;20.580;2023-12-20T08:30:41;23.13;;;14.43;;
21758;SDS011;11041;50.854;20.580;2023-12-20T08:33:08;20.17;;;12.40;;
21758;SDS011;11041;50.854;20.580;2023-12-20T08:35:41;17.17;;;11.95;;
21758;SDS011;11041;50.854;20.580;2023-12-20T08:38:10;16.73;;;9.88;;
21758;SDS011;11041;50.854;20.580;2023-12-20T08:40:38;13.50;;;10.60;;
21758;SDS011;11041;50.854;20.580;2023-12-20T08:43:07;13.40;;;9.95;;
21758;SDS011;11041;50.854;20.580;2023-12-20T08:45:34;14.90;;;11.13;;
21758;SDS011;11041;50.854;20.580;2023-12-20T08:48:04;13.40;;;10.00;;
21758;SDS011;11041;50.854;20.580;2023-12-20T08:50:35;10.65;;;7.88;;
21758;SDS011;11041;50.854;20.580;2023-12-20T08:53:06;10.07;;;8.05;;
21758;SDS011;11041;50.854;20.580;2023-12-20T08:55:36;12.98;;;8.05;;
21758;SDS011;11041;50.854;20.580;2023-12-20T08:58:05;8.70;;;6.38;;
21758;SDS011;11041;50.854;20.580;2023-12-20T09:00:36;9.05;;;7.68;;
21758;SDS011;11041;50.854;20.580;2023-12-20T09:03:04;11.63;;;8.05;;
21758;SDS011;11041;50.854;20.580;2023-12-20T09:05:38;12.18;;;7.00;;
21758;SDS011;11041;50.854;20.580;2023-12-20T09:08:06;9.35;;;6.93;;
21758;SDS011;11041;50.854;20.580;2023-12-20T09:10:35;8.52;;;6.15;;
21758;SDS011;11041;50.854;20.580;2023-12-20T09:13:03;9.63;;;7.18;;
21758;SDS011;11041;50.854;20.580;2023-12-20T09:15:30;5.70;;;4.35;;
21758;SDS011;11041;50.854;20.580;2023-12-20T09:17:56;7.07;;;5.20;;
21758;SDS011;11041;50.854;20.580;2023-12-20T09:20:26;8.93;;;6.25;;
21758;SDS011;11041;50.854;20.580;2023-12-20T09:22:54;7.60;;;6.38;;
21758;SDS011;11041;50.854;20.580;2023-12-20T09:25:23;7.20;;;5.80;;
21758;SDS011;11041;50.854;20.580;2023-12-20T09:27:54;9.32;;;6.85;;
21758;SDS011;11041;50.854;20.580;2023-12-20T09:30:22;7.55;;;5.85;;
21758;SDS011;11041;50.854;20.580;2023-12-20T09:32:52;8.98;;;6.38;;
21758;SDS011;11041;50.854;20.580;2023-12-20T09:35:20;7.68;;;5.68;;
21758;SDS011;11041;50.854;20.580;2023-12-20T09:37:52;9.60;;;6.35;;
21758;SDS011;11041;50.854;20.580;2023-12-20T09:40:18;8.20;;;6.57;;
21758;SDS011;11041;50.854;20.580;2023-12-20T09:45:34;4.20;;;3.08;;
21758;SDS011;11041;50.854;20.580;2023-12-20T09:48:01;5.85;;;4.25;;
21758;SDS011;11041;50.854;20.580;2023-12-20T09:50:30;5.30;;;4.30;;
21758;SDS011;11041;50.854;20.580;2023-12-20T09:53:01;6.47;;;4.28;;
21758;SDS011;11041;50.854;20.580;2023-12-20T09:55:34;6.00;;;4.68;;
21758;SDS011;11041;50.854;20.580;2023-12-20T09:58:03;4.88;;;4.28;;
21758;SDS011;11041;50.854;20.580;2023-12-20T10:00:37;7.13;;;4.10;;
21758;SDS011;11041;50.854;20.580;2023-12-20T10:03:05;7.80;;;4.75;;
21758;SDS011;11041;50.854;20.580;2023-12-20T10:05:33;7.57;;;5.45;;
21758;SDS011;11041;50.854;20.580;2023-12-20T10:08:01;8.45;;;6.05;;
21758;SDS011;11041;50.854;20.580;2023-12-20T10:10:28;7.65;;;4.75;;
21758;SDS011;11041;50.854;20.580;2023-12-20T10:13:02;6.03;;;4.68;;
21758;SDS011;11041;50.854;20.580;2023-12-20T10:15:34;7.13;;;4.68;;
21758;SDS011;11041;50.854;20.580;2023-12-20T10:18:02;5.55;;;4.40;;
21758;SDS011;11041;50.854;20.580;2023-12-20T10:20:35;5.03;;;4.10;;
21758;SDS011;11041;50.854;20.580;2023-12-20T10:23:08;6.63;;;4.32;;
21758;SDS011;11041;50.854;20.580;2023-12-20T10:25:36;7.03;;;4.97;;
21758;SDS011;11041;50.854;20.580;2023-12-20T10:28:10;6.45;;;5.20;;
21758;SDS011;11041;50.854;20.580;2023-12-20T10:30:40;3.97;;;3.55;;
21758;SDS011;11041;50.854;20.580;2023-12-20T10:33:09;6.78;;;3.70;;
21758;SDS011;11041;50.854;20.580;2023-12-20T10:35:38;3.22;;;2.85;;
21758;SDS011;11041;50.854;20.580;2023-12-20T10:38:07;3.42;;;2.75;;
21758;SDS011;11041;50.854;20.580;2023-12-20T10:40:35;3.20;;;2.28;;
21758;SDS011;11041;50.854;20.580;2023-12-20T10:43:04;2.80;;;2.50;;
21758;SDS011;11041;50.854;20.580;2023-12-20T10:45:34;6.63;;;3.13;;
21758;SDS011;11041;50.854;20.580;2023-12-20T10:48:01;4.50;;;2.90;;
21758;SDS011;11041;50.854;20.580;2023-12-20T10:50:29;6.80;;;4.05;;
21758;SDS011;11041;50.854;20.580;2023-12-20T10:52:57;5.47;;;3.70;;
21758;SDS011;11041;50.854;20.580;2023-12-20T10:55:27;9.40;;;4.13;;
21758;SDS011;11041;50.854;20.580;2023-12-20T10:58:00;5.70;;;4.18;;
21758;SDS011;11041;50.854;20.580;2023-12-20T11:00:33;7.07;;;4.53;;
21758;SDS011;11041;50.854;20.580;2023-12-20T11:03:08;8.63;;;4.88;;
21758;SDS011;11041;50.854;20.580;2023-12-20T11:05:40;7.78;;;5.18;;
21758;SDS011;11041;50.854;20.580;2023-12-20T11:12:13;7.38;;;5.22;;
21758;SDS011;11041;50.854;20.580;2023-12-20T11:14:57;7.75;;;4.75;;
21758;SDS011;11041;50.854;20.580;2023-12-20T11:17:29;9.27;;;5.18;;
21758;SDS011;11041;50.854;20.580;2023-12-20T11:22:25;6.80;;;4.57;;
21758;SDS011;11041;50.854;20.580;2023-12-20T11:25:09;6.82;;;5.60;;
21758;SDS011;11041;50.854;20.580;2023-12-20T11:27:42;6.35;;;4.72;;
21758;SDS011;11041;50.854;20.580;2023-12-20T11:30:09;7.03;;;5.32;;
21758;SDS011;11041;50.854;20.580;2023-12-20T11:32:38;7.03;;;5.28;;
21758;SDS011;11041;50.854;20.580;2023-12-20T11:37:39;4.50;;;3.20;;
21758;SDS011;11041;50.854;20.580;2023-12-20T11:40:13;7.43;;;5.40;;
21758;SDS011;11041;50.854;20.580;2023-12-20T11:42:48;5.60;;;4.18;;
21758;SDS011;11041;50.854;20.580;2023-12-20T11:45:17;5.13;;;3.78;;
21758;SDS011;11041;50.854;20.580;2023-12-20T11:47:47;4.40;;;3.10;;
21758;SDS011;11041;50.854;20.580;2023-12-20T11:50:16;5.70;;;3.45;;
21758;SDS011;11041;50.854;20.580;2023-12-20T11:52:50;5.25;;;3.88;;
21758;SDS011;11041;50.854;20.580;2023-12-20T11:55:19;4.38;;;3.53;;
21758;SDS011;11041;50.854;20.580;2023-12-20T11:57:46;3.95;;;3.25;;
21758;SDS011;11041;50.854;20.580;2023-12-20T12:00:18;5.95;;;3.78;;
21758;SDS011;11041;50.854;20.580;2023-12-20T12:02:57;5.32;;;2.97;;
21758;SDS011;11041;50.854;20.580;2023-12-20T12:05:25;6.43;;;5.15;;
21758;SDS011;11041;50.854;20.580;2023-12-20T12:07:51;5.30;;;4.20;;
21758;SDS011;11041;50.854;20.580;2023-12-20T12:10:19;5.93;;;3.63;;
21758;SDS011;11041;50.854;20.580;2023-12-20T12:12:45;4.53;;;3.85;;
21758;SDS011;11041;50.854;20.580;2023-12-20T12:15:12;4.15;;;3.22;;
21758;SDS011;11041;50.854;20.580;2023-12-20T12:17:40;4.32;;;3.20;;
21758;SDS011;11041;50.854;20.580;2023-12-20T12:20:07;3.55;;;2.83;;
21758;SDS011;11041;50.854;20.580;2023-12-20T12:22:35;4.07;;;2.40;;
21758;SDS011;11041;50.854;20.580;2023-12-20T12:25:11;2.30;;;2.10;;
21758;SDS011;11041;50.854;20.580;2023-12-20T12:27:40;3.42;;;2.70;;
21758;SDS011;11041;50.854;20.580;2023-12-20T12:30:08;3.85;;;2.70;;
21758;SDS011;11041;50.854;20.580;2023-12-20T12:32:35;3.22;;;2.90;;
21758;SDS011;11041;50.854;20.580;2023-12-20T12:35:03;3.63;;;2.92;;
21758;SDS011;11041;50.854;20.580;2023-12-20T12:37:34;3.80;;;2.78;;
21758;SDS011;11041;50.854;20.580;2023-12-20T12:42:39;4.35;;;2.75;;
21758;SDS011;11041;50.854;20.580;2023-12-20T12:45:08;3.97;;;3.15;;
21758;SDS011;11041;50.854;20.580;2023-12-20T12:47:37;3.28;;;2.97;;
21758;SDS011;11041;50.854;20.580;2023-12-20T12:50:04;5.35;;;3.67;;
21758;SDS011;11041;50.854;20.580;2023-12-20T12:52:31;5.40;;;3.78;;
21758;SDS011;11041;50.854;20.580;2023-12-20T12:54:58;2.83;;;2.42;;
21758;SDS011;11041;50.854;20.580;2023-12-20T12:57:25;4.22;;;3.63;;
21758;SDS011;11041;50.854;20.580;2023-12-20T12:59:52;4.28;;;3.17;;
21758;SDS011;11041;50.854;20.580;2023-12-20T13:02:18;3.90;;;3.13;;
21758;SDS011;11041;50.854;20.580;2023-12-20T13:04:45;5.63;;;4.03;;
21758;SDS011;11041;50.854;20.580;2023-12-20T13:07:11;8.82;;;5.40;;
21758;SDS011;11041;50.854;20.580;2023-12-20T13:09:39;6.25;;;4.60;;
21758;SDS011;11041;50.854;20.580;2023-12-20T13:12:06;5.88;;;4.20;;
21758;SDS011;11041;50.854;20.580;2023-12-20T13:14:33;5.80;;;4.38;;
21758;SDS011;11041;50.854;20.580;2023-12-20T13:17:03;3.80;;;3.35;;
21758;SDS011;11041;50.854;20.580;2023-12-20T13:19:31;5.63;;;3.80;;
21758;SDS011;11041;50.854;20.580;2023-12-20T13:21:58;3.85;;;3.30;;
21758;SDS011;11041;50.854;20.580;2023-12-20T13:24:25;6.28;;;4.35;;
21758;SDS011;11041;50.854;20.580;2023-12-20T13:26:51;4.32;;;3.58;;
21758;SDS011;11041;50.854;20.580;2023-12-20T13:29:18;6.03;;;4.68;;
21758;SDS011;11041;50.854;20.580;2023-12-20T13:31:44;5.50;;;3.92;;
21758;SDS011;11041;50.854;20.580;2023-12-20T13:34:11;5.13;;;3.67;;
21758;SDS011;11041;50.854;20.580;2023-12-20T13:36:37;4.35;;;3.95;;
21758;SDS011;11041;50.854;20.580;2023-12-20T13:39:04;5.03;;;4.00;;
21758;SDS011;11041;50.854;20.580;2023-12-20T13:41:32;5.13;;;4.30;;
21758;SDS011;11041;50.854;20.580;2023-12-20T13:43:58;5.75;;;3.95;;
21758;SDS011;11041;50.854;20.580;2023-12-20T13:46:27;6.50;;;4.53;;
21758;SDS011;11041;50.854;20.580;2023-12-20T13:48:53;5.90;;;4.45;;
21758;SDS011;11041;50.854;20.580;2023-12-20T13:51:20;10.88;;;5.22;;
21758;SDS011;11041;50.854;20.580;2023-12-20T13:53:46;6.45;;;5.03;;
21758;SDS011;11041;50.854;20.580;2023-12-20T13:56:14;6.28;;;4.55;;
21758;SDS011;11041;50.854;20.580;2023-12-20T13:58:42;6.70;;;5.28;;
21758;SDS011;11041;50.854;20.580;2023-12-20T14:01:09;8.18;;;5.18;;
21758;SDS011;11041;50.854;20.580;2023-12-20T14:03:37;6.93;;;4.38;;
21758;SDS011;11041;50.854;20.580;2023-12-20T14:06:05;4.38;;;3.97;;
21758;SDS011;11041;50.854;20.580;2023-12-20T14:08:32;5.85;;;4.85;;
21758;SDS011;11041;50.854;20.580;2023-12-20T14:10:59;8.05;;;5.40;;
21758;SDS011;11041;50.854;20.580;2023-12-20T14:13:27;6.43;;;4.60;;
21758;SDS011;11041;50.854;20.580;2023-12-20T14:15:54;6.95;;;5.60;;
21758;SDS011;11041;50.854;20.580;2023-12-20T14:18:21;6.15;;;4.03;;
21758;SDS011;11041;50.854;20.580;2023-12-20T14:20:51;7.43;;;4.90;;
21758;SDS011;11041;50.854;20.580;2023-12-20T14:23:19;10.15;;;6.72;;
21758;SDS011;11041;50.854;20.580;2023-12-20T14:25:46;9.98;;;6.45;;
21758;SDS011;11041;50.854;20.580;2023-12-20T14:28:15;10.32;;;7.07;;
21758;SDS011;11041;50.854;20.580;2023-12-20T14:30:42;11.95;;;8.30;;
21758;SDS011;11041;50.854;20.580;2023-12-20T14:33:10;14.18;;;9.13;;
21758;SDS011;11041;50.854;20.580;2023-12-20T14:35:36;12.57;;;8.20;;
21758;SDS011;11041;50.854;20.580;2023-12-20T14:38:03;8.90;;;6.55;;
21758;SDS011;11041;50.854;20.580;2023-12-20T14:40:30;7.93;;;5.63;;
21758;SDS011;11041;50.854;20.580;2023-12-20T14:42:57;8.95;;;5.35;;